Time;durP1;ratioP1;P1;durP2;ratioP2;P2;SDS_P1;SDS_P2;PMS_P1;PMS_P2;Temp;Humidity;BMP_temperature;BMP_pressure;BME280_temperature;BME280_humidity;BME280_pressure;Samples;Min_cycle;Max_cycle;Signal;HPM_P1;HPM_P2
2023/02/06 06:33:38;;;;;;;63.63;5.68;;;3.50;99.90;;;;;;6295989;22;20023;-85
2023/02/06 06:40:08;;;;;;;49.15;5.68;;;3.20;99.90;;;;;;6124564;23;20024;-85
2023/02/06 06:43:22;;;;;;;44.05;4.90;;;3.10;99.90;;;;;;5986988;23;20019;-84
2023/02/06 06:47:01;;;;;;;59.55;5.90;;;3.20;99.90;;;;;;6012946;23;20074;-84
2023/02/06 06:53:52;;;;;;;61.38;6.25;;;3.70;99.90;;;;;;6004041;23;20015;-84
2023/02/06 06:57:12;;;;;;;51.25;5.53;;;3.60;99.90;;;;;;5955419;23;20020;-84
2023/02/06 07:29:29;;;;;;;54.67;5.90;;;3.80;99.90;;;;;;6054870;23;20030;-83
2023/02/06 07:32:50;;;;;;;68.05;6.88;;;3.40;99.90;;;;;;5942949;24;20031;-85
2023/02/06 07:39:16;;;;;;;51.67;7.10;;;3.20;99.90;;;;;;5946367;23;20380;-84
2023/02/06 07:42:15;;;;;;;70.45;6.93;;;3.30;99.90;;;;;;5922082;24;20048;-83
2023/02/06 07:46:01;;;;;;;;;;;;;;;;;;;;;
2023/02/06 07:53:35;;;;;;;54.65;6.63;;;3.80;99.90;;;;;;5894785;24;20434;-84
2023/02/06 07:57:09;;;;;;;67.15;7.70;;;3.80;99.90;;;;;;5851156;24;20090;-84
2023/02/06 08:14:01;;;;;;;61.85;6.88;;;3.60;99.90;;;;;;6297699;22;20064;-86
2023/02/06 08:17:44;;;;;;;;;;;;;;;;;;;;;
2023/02/06 08:20:25;;;;;;;82.18;7.78;;;4.30;99.90;;;;;;6272148;22;20031;-82
2023/02/06 08:23:51;;;;;;;;;;;;;;;;;;;;;
2023/02/06 08:27:06;;;;;;;61.88;7.22;;;4.40;99.90;;;;;;6268552;22;20082;-83
2023/02/06 08:29:41;;;;;;;73.60;7.95;;;4.50;99.90;;;;;;6244492;22;20043;-83
2023/02/06 08:32:12;;;;;;;68.32;8.50;;;4.50;99.90;;;;;;6244714;22;20019;-83
2023/02/06 08:38:33;;;;;;;;;;;4.50;99.90;;;;;;6266318;22;20020;-84
2023/02/06 08:41:39;;;;;;;65.97;7.63;;;4.60;99.90;;;;;;6266985;22;20316;-83
2023/02/06 08:53:02;;;;;;;;;;;;;;;;;;;;;
2023/02/06 11:01:19;;;;;;;37.58;4.72;;;6.90;99.90;;;;;;6044724;22;4074516;-82
2023/02/06 11:56:53;;;;;;;31.50;5.43;;;7.50;99.90;;;;;;6229739;22;20055;-84
2023/02/06 11:59:26;;;;;;;27.75;3.90;;;7.30;99.90;;;;;;6192585;23;20044;-85
2023/02/06 12:02:00;;;;;;;23.70;3.63;;;7.50;99.90;;;;;;6190618;23;20016;-85
2023/02/06 12:08:06;;;;;;;27.05;3.95;;;7.50;99.90;;;;;;6215486;23;20020;-83
2023/02/06 12:10:40;;;;;;;26.75;3.80;;;7.50;99.90;;;;;;6190811;23;20085;-87
2023/02/06 12:13:49;;;;;;;25.02;3.22;;;7.40;99.90;;;;;;6192619;23;20339;-88
2023/02/06 12:16:50;;;;;;;36.67;4.00;;;7.40;99.90;;;;;;6216724;23;20111;-87
2023/02/06 12:37:50;;;;;;;22.50;2.85;;;7.40;99.90;;;;;;6149364;23;20016;-86
2023/02/06 13:04:30;;;;;;;;;;;;;;;;;;;;;
2023/02/06 13:11:41;;;;;;;;;;;;;;;;;;;;;
2023/02/06 13:17:58;;;;;;;27.95;4.00;;;7.50;99.90;;;;;;5791534;24;20030;-88
2023/02/06 13:20:25;;;;;;;28.25;3.22;;;7.50;99.90;;;;;;5820475;24;20075;-87
2023/02/06 13:23:14;;;;;;;19.00;3.15;;;7.70;99.90;;;;;;5865759;24;20158;-86
2023/02/06 13:25:40;;;;;;;20.27;3.22;;;7.70;99.90;;;;;;5841069;24;20049;-87
2023/02/06 13:28:30;;;;;;;19.83;2.75;;;7.70;99.90;;;;;;5842499;24;20006;-88
2023/02/06 13:31:05;;;;;;;28.15;3.70;;;7.50;99.90;;;;;;5843301;24;20021;-87
2023/02/06 13:34:18;;;;;;;27.13;3.63;;;7.60;99.90;;;;;;5854882;24;20175;-86
2023/02/06 13:41:25;;;;;;;25.98;2.90;;;7.60;99.90;;;;;;5835967;24;20025;-85
2023/02/06 13:44:33;;;;;;;17.23;2.50;;;7.40;99.90;;;;;;5895923;24;20028;-86
2023/02/06 13:51:07;;;;;;;22.88;3.50;;;7.50;99.90;;;;;;5939068;24;20028;-86
2023/02/06 13:54:31;;;;;;;19.45;2.70;;;7.60;99.90;;;;;;5953452;24;20023;-87
2023/02/06 13:58:30;;;;;;;25.50;4.28;;;7.70;99.90;;;;;;5953093;23;20028;-88
2023/02/06 14:00:58;;;;;;;26.60;3.45;;;7.60;99.90;;;;;;5897766;24;20017;-87
2023/02/06 14:03:38;;;;;;;22.25;3.25;;;7.60;99.90;;;;;;5901313;24;20021;-86
2023/02/06 14:06:09;;;;;;;19.83;3.15;;;7.60;99.90;;;;;;5946001;24;20040;-86
2023/02/06 14:08:58;;;;;;;24.15;3.95;;;7.70;99.90;;;;;;5987078;23;20294;-84
2023/02/06 14:15:01;;;;;;;29.30;2.97;;;7.70;99.90;;;;;;6068017;23;20122;-84
2023/02/06 14:17:27;;;;;;;19.02;2.55;;;7.60;99.90;;;;;;6071768;23;20281;-84
2023/02/06 14:20:28;;;;;;;19.00;3.03;;;7.70;99.90;;;;;;6071100;23;20086;-84
2023/02/06 14:23:25;;;;;;;19.63;3.20;;;7.70;99.90;;;;;;6071848;23;20053;-85
2023/02/06 14:26:02;;;;;;;23.80;2.75;;;7.50;99.90;;;;;;6073823;23;20419;-85
2023/02/06 14:28:37;;;;;;;18.55;2.67;;;7.40;99.90;;;;;;6071699;23;20057;-84
2023/02/06 14:31:40;;;;;;;33.78;3.15;;;7.50;99.90;;;;;;6108622;23;20024;-85
2023/02/06 14:34:15;;;;;;;16.20;2.97;;;7.50;99.90;;;;;;6190437;23;20008;-85
2023/02/06 14:36:59;;;;;;;16.98;2.80;;;7.30;99.90;;;;;;6220381;23;20012;-84
2023/02/06 14:39:53;;;;;;;26.42;3.28;;;7.40;99.90;;;;;;6194061;23;20016;-85
2023/02/06 14:42:34;;;;;;;24.23;3.15;;;7.30;99.90;;;;;;6218732;23;20016;-85
2023/02/06 14:45:12;;;;;;;22.48;3.25;;;7.40;99.90;;;;;;6194150;23;20012;-84
2023/02/06 14:48:06;;;;;;;19.30;2.50;;;7.40;99.90;;;;;;6194305;23;20016;-83
2023/02/06 14:55:22;;;;;;;20.85;3.05;;;7.30;99.90;;;;;;6147610;23;20032;-83
2023/02/06 15:02:31;;;;;;;15.13;2.50;;;7.30;99.90;;;;;;5949627;24;20024;-83
2023/02/06 15:06:16;;;;;;;;;;;;;;;;;;;;;
2023/02/06 15:09:34;;;;;;;18.67;2.75;;;7.20;99.90;;;;;;5969968;24;20111;-83
2023/02/06 15:13:07;;;;;;;20.05;3.10;;;7.30;99.90;;;;;;5869125;24;20017;-84
2023/02/06 15:41:51;;;;;;;19.25;3.20;;;6.90;99.90;;;;;;6276819;22;20024;-85
2023/02/06 15:44:33;;;;;;;20.65;2.63;;;6.90;99.90;;;;;;6082638;23;2678011;-84
2023/02/06 15:47:25;;;;;;;18.40;2.45;;;6.90;99.90;;;;;;6214630;23;20463;-86
2023/02/06 15:57:42;;;;;;;22.67;2.42;;;6.60;99.90;;;;;;6126428;23;20053;-85
2023/02/06 16:00:22;;;;;;;17.00;2.80;;;6.50;99.90;;;;;;6077089;23;20014;-84
2023/02/06 16:03:05;;;;;;;;;;;;;;;;;;;;;
2023/02/06 16:06:18;;;;;;;18.88;2.75;;;6.40;99.90;;;;;;6099667;23;20017;-82
2023/02/06 16:09:00;;;;;;;20.60;2.60;;;6.20;99.90;;;;;;6074558;23;20431;-84
2023/02/06 16:11:46;;;;;;;26.13;3.30;;;6.30;99.90;;;;;;6057836;23;20107;-83
2023/02/06 16:14:32;;;;;;;25.10;3.88;;;6.30;99.90;;;;;;6071097;23;20053;-84
2023/02/06 16:17:07;;;;;;;28.35;3.90;;;6.20;99.90;;;;;;6077138;23;20136;-82
2023/02/06 16:19:37;;;;;;;19.55;3.08;;;6.00;99.90;;;;;;6104123;23;20355;-84
2023/02/06 16:22:16;;;;;;;22.98;2.80;;;5.70;99.90;;;;;;6097882;23;20028;-83
2023/02/06 16:24:44;;;;;;;20.65;3.30;;;5.70;99.90;;;;;;6077382;23;20045;-83
2023/02/06 16:27:23;;;;;;;23.55;3.22;;;5.80;99.90;;;;;;6095601;23;20018;-84
2023/02/06 16:29:53;;;;;;;23.60;4.25;;;5.60;99.90;;;;;;6149641;23;20013;-84
2023/02/06 16:32:28;;;;;;;22.95;3.50;;;5.50;99.90;;;;;;6151649;23;20076;-83
2023/02/06 16:35:03;;;;;;;27.08;3.53;;;5.30;99.90;;;;;;6152741;23;20017;-83
2023/02/06 16:38:09;;;;;;;31.98;4.10;;;5.70;99.90;;;;;;6155386;23;20755;-82
2023/02/06 16:40:36;;;;;;;17.92;3.22;;;5.40;99.90;;;;;;6064663;23;20015;-82
2023/02/06 16:43:04;;;;;;;25.25;3.95;;;5.70;99.90;;;;;;6034724;23;20058;-84
2023/02/06 16:45:30;;;;;;;29.30;3.58;;;5.50;99.90;;;;;;5982106;23;20058;-83
2023/02/06 16:47:56;;;;;;;30.65;4.53;;;5.10;99.90;;;;;;6030171;23;20027;-83
2023/02/06 16:50:49;;;;;;;21.85;4.20;;;5.50;99.90;;;;;;6030519;23;20027;-85
2023/02/06 16:53:24;;;;;;;23.75;3.60;;;5.30;99.90;;;;;;6028805;23;20034;-82
2023/02/06 16:55:50;;;;;;;26.98;3.63;;;5.00;99.90;;;;;;6029777;23;20023;-83
2023/02/06 16:58:30;;;;;;;22.85;4.13;;;4.90;99.90;;;;;;6035856;23;20075;-83
2023/02/06 17:01:10;;;;;;;27.50;3.67;;;5.20;99.90;;;;;;6030020;23;20050;-83
2023/02/06 17:03:37;;;;;;;22.20;3.85;;;5.00;99.90;;;;;;6029089;23;20015;-81
2023/02/06 17:13:59;;;;;;;30.75;4.53;;;5.00;99.90;;;;;;6007240;23;20192;-82
2023/02/06 17:16:44;;;;;;;31.50;8.70;;;4.90;99.90;;;;;;6062763;23;20145;-82
2023/02/06 17:19:51;;;;;;;39.47;10.10;;;4.80;99.90;;;;;;6101893;23;20061;-83
2023/02/06 17:26:04;;;;;;;32.88;8.02;;;4.10;99.90;;;;;;6037721;23;20086;-82
2023/02/06 17:28:45;;;;;;;28.55;7.10;;;3.90;99.90;;;;;;6012239;23;20098;-81
2023/02/06 17:32:08;;;;;;;30.98;6.68;;;4.40;99.90;;;;;;6013389;23;20033;-81
2023/02/06 17:34:35;;;;;;;30.92;6.63;;;4.20;99.90;;;;;;6085667;23;20049;-80
2023/02/06 17:37:03;;;;;;;27.13;6.57;;;4.30;99.90;;;;;;6039715;23;20095;-80
2023/02/06 17:39:29;;;;;;;30.42;6.95;;;3.90;99.90;;;;;;6061024;23;20086;-79
2023/02/06 17:41:54;;;;;;;28.65;6.32;;;4.10;99.90;;;;;;6070356;23;20018;-80
2023/02/06 17:44:20;;;;;;;25.40;6.22;;;4.00;99.90;;;;;;6084248;23;20810;-81
2023/02/06 17:46:49;;;;;;;25.67;5.75;;;3.40;99.90;;;;;;6092140;23;20089;-81
2023/02/06 17:49:16;;;;;;;19.77;5.70;;;3.30;99.90;;;;;;6070275;23;20061;-80
2023/02/06 17:51:43;;;;;;;35.13;6.80;;;3.40;99.90;;;;;;6068540;23;20374;-81
2023/02/06 17:54:09;;;;;;;34.72;7.43;;;3.80;99.90;;;;;;6138850;23;20929;-80
2023/02/06 17:56:36;;;;;;;32.10;6.18;;;3.50;99.90;;;;;;6122592;23;20580;-79
2023/02/06 17:59:02;;;;;;;26.23;5.60;;;3.80;99.90;;;;;;6121836;23;20151;-80
2023/02/06 18:01:28;;;;;;;25.65;6.15;;;3.80;99.90;;;;;;6147707;23;20013;-81
2023/02/06 18:03:54;;;;;;;25.50;6.68;;;3.30;99.90;;;;;;6148387;23;20402;-80
2023/02/06 18:06:21;;;;;;;29.58;8.10;;;3.60;99.90;;;;;;6102345;23;20131;-81
2023/02/06 18:08:50;;;;;;;32.08;9.02;;;3.50;99.90;;;;;;6122610;23;20021;-80
2023/02/06 18:11:18;;;;;;;36.25;10.60;;;3.10;99.90;;;;;;6157469;23;20018;-81
2023/02/06 18:13:46;;;;;;;33.22;10.70;;;3.30;99.90;;;;;;6145132;23;20013;-80
2023/02/06 18:16:18;;;;;;;37.33;12.60;;;3.50;99.90;;;;;;6096029;23;20377;-81
2023/02/06 18:18:53;;;;;;;35.40;9.63;;;3.10;99.90;;;;;;6145745;23;20020;-81
2023/02/06 18:21:28;;;;;;;31.92;8.70;;;3.00;99.90;;;;;;6117961;23;20024;-81
2023/02/06 18:23:54;;;;;;;29.27;8.98;;;2.80;99.90;;;;;;6119062;23;20057;-80
2023/02/06 18:26:30;;;;;;;35.67;9.75;;;3.10;99.90;;;;;;6119035;23;20028;-81
2023/02/06 18:29:05;;;;;;;33.38;8.02;;;2.50;99.90;;;;;;6068979;23;20101;-80
2023/02/06 18:31:40;;;;;;;;;;;3.20;99.90;;;;;;6144873;23;20508;-80
2023/02/06 18:34:38;;;;;;;27.58;7.65;;;2.90;99.90;;;;;;6120143;23;20282;-81
2023/02/06 18:37:22;;;;;;;28.67;6.85;;;2.50;99.90;;;;;;6118419;23;20052;-79
2023/02/06 18:39:59;;;;;;;23.27;7.10;;;2.40;99.90;;;;;;6121330;23;20018;-80
2023/02/06 18:45:09;;;;;;;20.70;6.32;;;2.30;99.90;;;;;;6091655;23;20108;-80
2023/02/06 18:47:50;;;;;;;22.02;6.60;;;2.20;99.90;;;;;;6066753;23;20072;-79
2023/02/06 18:50:25;;;;;;;25.63;6.38;;;2.70;99.90;;;;;;6091735;23;20037;-80
2023/02/06 18:52:51;;;;;;;23.95;6.35;;;2.40;99.90;;;;;;6068440;23;20121;-80
2023/02/06 18:55:40;;;;;;;;;;;;;;;;;;;;;
2023/02/06 18:58:17;;;;;;;24.55;5.93;;;1.90;99.90;;;;;;6088598;23;20056;-80
2023/02/06 19:00:45;;;;;;;30.70;7.57;;;1.90;99.90;;;;;;6085915;23;20439;-80
2023/02/06 19:03:11;;;;;;;19.77;6.55;;;2.00;99.90;;;;;;6065010;23;20320;-80
2023/02/06 19:05:37;;;;;;;22.45;6.38;;;2.70;99.90;;;;;;6066706;23;20139;-81
2023/02/06 19:08:21;;;;;;;28.88;7.53;;;1.90;99.90;;;;;;6066659;23;20049;-81
2023/02/06 19:10:47;;;;;;;23.08;6.78;;;2.20;99.90;;;;;;6067790;23;20026;-81
2023/02/06 19:13:12;;;;;;;27.33;5.97;;;2.10;99.90;;;;;;6090900;23;20100;-81
2023/02/06 19:15:38;;;;;;;29.73;6.78;;;2.20;99.90;;;;;;6124766;23;20017;-81
2023/02/06 19:18:04;;;;;;;26.95;5.50;;;2.20;99.90;;;;;;6151388;23;20033;-81
2023/02/06 19:20:30;;;;;;;25.30;5.90;;;2.50;99.90;;;;;;6151182;23;20009;-80
2023/02/06 19:22:56;;;;;;;26.08;5.70;;;1.90;99.90;;;;;;6126140;23;20079;-80
2023/02/06 19:25:21;;;;;;;29.05;6.22;;;2.30;99.90;;;;;;6150223;23;20017;-81
2023/02/06 19:27:47;;;;;;;22.08;6.13;;;2.00;99.90;;;;;;6149550;23;20028;-81
2023/02/06 19:30:13;;;;;;;23.95;5.28;;;1.80;99.90;;;;;;6151617;23;20155;-80
2023/02/06 19:32:38;;;;;;;20.13;5.10;;;2.10;99.90;;;;;;6124302;23;20017;-81
2023/02/06 19:35:05;;;;;;;19.25;4.70;;;1.80;99.90;;;;;;6128636;23;20115;-79
2023/02/06 19:37:31;;;;;;;20.42;5.38;;;1.80;99.90;;;;;;6129244;23;20075;-81
2023/02/06 19:39:56;;;;;;;22.17;5.00;;;1.60;99.90;;;;;;6148700;23;20421;-81
2023/02/06 19:42:22;;;;;;;16.73;4.97;;;1.40;99.90;;;;;;6150481;23;20024;-80
2023/02/06 19:44:54;;;;;;;16.35;4.63;;;1.80;99.90;;;;;;6121904;23;20474;-81
2023/02/06 19:47:21;;;;;;;26.17;5.47;;;1.60;99.90;;;;;;6121764;23;20096;-80
2023/02/06 19:49:50;;;;;;;14.60;5.10;;;1.30;99.90;;;;;;6146009;23;20719;-80
2023/02/06 19:52:15;;;;;;;20.80;4.70;;;1.70;99.90;;;;;;6121330;23;20080;-81
2023/02/06 19:54:41;;;;;;;25.63;6.05;;;1.20;99.90;;;;;;6122185;23;20021;-80
2023/02/06 19:57:07;;;;;;;25.15;7.80;;;1.50;99.90;;;;;;6146242;23;20095;-81
2023/02/06 19:59:32;;;;;;;36.88;12.32;;;1.70;99.90;;;;;;6124194;23;20035;-80
2023/02/06 20:02:00;;;;;;;37.88;12.73;;;1.00;99.90;;;;;;6124102;23;20010;-80
2023/02/06 20:04:32;;;;;;;36.05;13.70;;;1.40;99.90;;;;;;6123964;23;20017;-80
2023/02/06 20:06:59;;;;;;;34.45;12.60;;;1.60;99.90;;;;;;6147368;23;20056;-81
2023/02/06 20:09:27;;;;;;;36.67;14.48;;;1.20;99.90;;;;;;6146979;23;20454;-80
2023/02/06 20:11:53;;;;;;;43.22;14.75;;;1.20;99.90;;;;;;6122272;23;20021;-80
2023/02/06 20:14:19;;;;;;;41.95;14.52;;;1.60;99.90;;;;;;6122235;23;20069;-80
2023/02/06 20:16:46;;;;;;;44.70;14.85;;;1.10;99.90;;;;;;6122595;23;20014;-80
2023/02/06 20:19:18;;;;;;;40.15;13.85;;;1.00;99.90;;;;;;6146721;23;20014;-79
2023/02/06 20:21:50;;;;;;;38.83;13.82;;;1.10;99.90;;;;;;6148516;23;20116;-80
2023/02/06 20:24:19;;;;;;;42.95;13.60;;;1.50;99.90;;;;;;6123523;23;20104;-79
2023/02/06 20:26:47;;;;;;;38.88;13.68;;;1.10;99.90;;;;;;6123756;23;20017;-79
2023/02/06 20:29:33;;;;;;;45.30;14.55;;;1.40;99.90;;;;;;6147917;23;20044;-79
2023/02/06 20:32:00;;;;;;;39.45;14.82;;;0.80;99.90;;;;;;6122092;23;20020;-80
2023/02/06 20:34:26;;;;;;;35.70;14.15;;;1.20;99.90;;;;;;6124206;23;20088;-80
2023/02/06 20:36:52;;;;;;;38.22;12.75;;;1.30;99.90;;;;;;6148019;23;20017;-81
2023/02/06 20:39:18;;;;;;;44.88;13.38;;;0.90;99.90;;;;;;6123888;23;20326;-79
2023/02/06 20:41:44;;;;;;;36.35;13.05;;;1.40;99.90;;;;;;6147760;23;20370;-80
2023/02/06 20:44:12;;;;;;;46.13;12.68;;;0.80;99.90;;;;;;6141292;23;20095;-81
2023/02/06 20:46:39;;;;;;;36.10;11.65;;;1.20;99.90;;;;;;6149960;23;20028;-81
2023/02/06 20:49:11;;;;;;;35.80;13.27;;;0.70;99.90;;;;;;6176024;23;20043;-81
2023/02/06 20:51:36;;;;;;;30.80;11.98;;;0.90;99.90;;;;;;6149499;23;20017;-81
2023/02/06 20:54:02;;;;;;;36.42;11.48;;;1.10;99.90;;;;;;6149481;23;20078;-81
2023/02/06 20:56:28;;;;;;;37.08;12.35;;;1.10;99.90;;;;;;6153846;23;20028;-81
2023/02/06 20:58:55;;;;;;;39.42;11.38;;;0.70;99.90;;;;;;6153018;23;20017;-81
2023/02/06 21:01:26;;;;;;;33.40;10.27;;;1.10;99.90;;;;;;6152611;23;20451;-81
2023/02/06 21:03:58;;;;;;;55.55;13.20;;;1.30;99.90;;;;;;6152275;23;20020;-81
2023/02/06 21:06:25;;;;;;;48.08;15.05;;;1.30;99.90;;;;;;6153939;23;20017;-81
2023/02/06 21:08:55;;;;;;;50.78;14.52;;;1.40;99.90;;;;;;6153407;23;20024;-82
2023/02/06 21:11:21;;;;;;;43.13;13.20;;;1.30;99.90;;;;;;6154118;23;20017;-82
2023/02/06 21:13:47;;;;;;;51.40;12.75;;;1.10;99.90;;;;;;6153272;23;20128;-81
2023/02/06 21:16:13;;;;;;;54.28;12.60;;;1.20;99.90;;;;;;6178119;23;20118;-81
2023/02/06 21:18:41;;;;;;;51.92;11.80;;;1.60;99.90;;;;;;6152977;23;20044;-81
2023/02/06 21:21:10;;;;;;;43.60;11.50;;;1.30;99.90;;;;;;6153782;23;20021;-81
2023/02/06 21:23:37;;;;;;;36.05;9.68;;;1.90;99.90;;;;;;6152984;23;20020;-82
2023/02/06 21:26:04;;;;;;;37.40;9.63;;;1.60;99.90;;;;;;6150863;23;20023;-81
2023/02/06 21:28:30;;;;;;;41.33;9.15;;;1.60;99.90;;;;;;6151894;23;20014;-82
2023/02/06 21:31:02;;;;;;;38.38;9.30;;;1.20;99.90;;;;;;6153903;23;20156;-82
2023/02/06 21:33:28;;;;;;;31.67;8.57;;;1.30;99.90;;;;;;6152617;23;20079;-82
2023/02/06 21:35:54;;;;;;;26.85;8.52;;;1.70;99.90;;;;;;6153053;23;20024;-82
2023/02/06 21:38:21;;;;;;;36.15;8.93;;;1.80;99.90;;;;;;6152005;23;20013;-83
2023/02/06 21:40:48;;;;;;;35.50;8.23;;;1.60;99.90;;;;;;6154126;23;20049;-83
2023/02/06 21:43:19;;;;;;;36.20;8.75;;;1.60;99.90;;;;;;6178710;23;20032;-81
2023/02/06 21:45:50;;;;;;;37.58;8.60;;;1.70;99.90;;;;;;6180215;23;20101;-82
2023/02/06 21:48:40;;;;;;;38.03;8.13;;;1.70;99.90;;;;;;6154065;23;20429;-83
2023/02/06 21:51:36;;;;;;;35.47;8.55;;;1.40;99.90;;;;;;6155651;23;20138;-82
2023/02/06 21:54:28;;;;;;;32.83;8.77;;;1.60;99.90;;;;;;6176504;23;20028;-83
2023/02/06 21:57:06;;;;;;;37.17;8.80;;;1.20;99.90;;;;;;6174442;23;20044;-82
2023/02/06 22:00:03;;;;;;;27.35;8.13;;;1.50;99.90;;;;;;6156058;23;20144;-84
2023/02/06 22:02:38;;;;;;;33.53;8.48;;;1.30;99.90;;;;;;6142827;23;20056;-83
2023/02/06 22:05:33;;;;;;;33.50;7.70;;;0.80;99.90;;;;;;6124493;23;20139;-81
2023/02/06 22:12:05;;;;;;;30.95;7.90;;;1.40;99.90;;;;;;6093220;23;20219;-82
2023/02/06 22:15:13;;;;;;;35.03;8.05;;;0.60;99.90;;;;;;6072631;23;20057;-82
2023/02/06 22:18:11;;;;;;;36.78;9.80;;;0.50;99.90;;;;;;6046641;23;20881;-83
2023/02/06 22:21:09;;;;;;;37.28;9.20;;;0.60;99.90;;;;;;6034254;23;20031;-83
2023/02/06 22:24:40;;;;;;;39.00;9.80;;;0.60;99.90;;;;;;6009804;23;20046;-83
2023/02/06 22:27:16;;;;;;;35.00;9.15;;;1.10;99.90;;;;;;6010618;23;20026;-83
2023/02/06 22:30:04;;;;;;;40.10;9.60;;;1.20;99.90;;;;;;6036443;23;20025;-82
2023/02/06 22:33:18;;;;;;;35.15;9.88;;;1.00;99.90;;;;;;6027535;23;20098;-82
2023/02/06 22:36:53;;;;;;;51.92;9.85;;;1.20;99.90;;;;;;5990496;23;20063;-82
2023/02/06 22:39:38;;;;;;;47.50;11.32;;;0.50;99.90;;;;;;5953588;24;20052;-82
2023/02/06 22:46:13;;;;;;;48.20;10.13;;;1.20;99.90;;;;;;5920868;24;20354;-82
2023/02/06 22:48:46;;;;;;;47.08;10.27;;;1.30;99.90;;;;;;5934320;24;20463;-82
2023/02/06 22:51:59;;;;;;;33.83;9.70;;;1.30;99.90;;;;;;5956252;24;20024;-82
2023/02/06 22:55:23;;;;;;;40.55;10.60;;;0.80;99.90;;;;;;5968786;24;20049;-82
2023/02/06 22:58:29;;;;;;;26.38;8.75;;;0.50;99.90;;;;;;5955257;24;20024;-82
2023/02/06 23:01:24;;;;;;;33.55;9.35;;;0.70;99.90;;;;;;5952677;24;20108;-82
2023/02/06 23:04:19;;;;;;;28.58;8.93;;;0.40;99.90;;;;;;5954541;24;20020;-82
2023/02/06 23:06:54;;;;;;;49.67;10.88;;;1.00;99.90;;;;;;5957829;24;20056;-81
2023/02/06 23:21:18;;;;;;;34.92;9.75;;;0.30;99.90;;;;;;5950148;24;20121;-82
2023/02/06 23:24:25;;;;;;;33.53;10.10;;;0.60;99.90;;;;;;6056665;23;20147;-82
2023/02/06 23:27:42;;;;;;;39.03;9.82;;;0.80;99.90;;;;;;6010343;23;20025;-81
2023/02/06 23:30:27;;;;;;;33.72;9.48;;;0.50;99.90;;;;;;5981009;23;20096;-81
2023/02/06 23:33:44;;;;;;;35.20;9.70;;;0.80;99.90;;;;;;6004929;23;20018;-83
2023/02/06 23:36:51;;;;;;;;;;;;;;;;;;;;;
2023/02/06 23:43:50;;;;;;;31.92;10.32;;;0.30;99.90;;;;;;5900301;24;20446;-83
2023/02/06 23:46:40;;;;;;;31.45;10.30;;;0.10;99.90;;;;;;5886489;24;20061;-82
2023/02/06 23:50:00;;;;;;;36.83;11.65;;;0.70;99.90;;;;;;5904607;24;20040;-83
2023/02/06 23:52:49;;;;;;;41.53;10.90;;;0.00;99.90;;;;;;5951396;24;20024;-82
2023/02/06 23:55:27;;;;;;;37.22;10.30;;;0.00;99.90;;;;;;5972746;23;20125;-83
